createdAt,value
2022-09-10T00:01:39.960Z,1.92
2022-09-10T00:04:14.889Z,2.00
2022-09-10T00:06:44.298Z,1.80
2022-09-10T00:09:14.026Z,2.30
2022-09-10T00:11:43.118Z,2.10
2022-09-10T00:14:15.594Z,2.03
2022-09-10T00:16:44.008Z,2.40
2022-09-10T00:19:14.941Z,2.50
2022-09-10T00:21:44.360Z,2.50
2022-09-10T00:26:41.995Z,2.28
2022-09-10T00:29:17.554Z,2.60
2022-09-10T00:31:46.195Z,2.42
2022-09-10T00:34:18.017Z,2.25
2022-09-10T00:36:46.898Z,2.80
2022-09-10T00:39:17.039Z,2.83
2022-09-10T00:41:47.971Z,2.95
2022-09-10T00:44:56.808Z,2.70
2022-09-10T00:47:29.951Z,2.45
2022-09-10T00:50:06.089Z,2.92
2022-09-10T00:52:39.376Z,2.90
2022-09-10T00:55:12.782Z,2.80
2022-09-10T00:57:42.489Z,2.88
2022-09-10T01:00:14.301Z,2.72
2022-09-10T01:02:43.318Z,2.72
2022-09-10T01:05:14.140Z,3.30
2022-09-10T01:07:42.928Z,2.80
2022-09-10T01:10:15.627Z,3.40
2022-09-10T01:13:15.118Z,2.88
2022-09-10T01:15:53.458Z,2.78
2022-09-10T01:18:33.496Z,3.20
2022-09-10T01:21:24.941Z,2.97
2022-09-10T01:24:30.138Z,2.88
2022-09-10T01:27:32.266Z,2.90
2022-09-10T01:30:07.337Z,2.80
2022-09-10T01:32:52.110Z,2.70
2022-09-10T01:35:27.957Z,2.70
2022-09-10T01:37:59.828Z,2.70
2022-09-10T01:40:31.027Z,3.10
2022-09-10T01:43:05.895Z,2.85
2022-09-10T01:45:47.300Z,2.92
2022-09-10T01:48:30.107Z,2.67
2022-09-10T01:51:09.093Z,2.53
2022-09-10T01:54:00.313Z,3.10
2022-09-10T01:56:39.368Z,2.95
2022-09-10T01:59:15.956Z,2.97
2022-09-10T02:01:51.599Z,2.97
2022-09-10T02:04:22.688Z,2.80
2022-09-10T02:06:52.649Z,3.10
2022-09-10T02:09:21.243Z,3.08
2022-09-10T02:11:51.581Z,3.30
2022-09-10T02:14:38.446Z,2.90
2022-09-10T02:17:33.684Z,3.15
2022-09-10T02:20:04.104Z,2.72
2022-09-10T02:22:36.366Z,3.15
2022-09-10T02:25:09.928Z,3.00
2022-09-10T02:27:40.393Z,3.30
2022-09-10T02:30:10.159Z,2.92
2022-09-10T02:32:40.953Z,3.13
2022-09-10T02:35:09.985Z,2.67
2022-09-10T02:37:38.511Z,3.08
2022-09-10T02:40:07.968Z,3.38
2022-09-10T02:42:36.369Z,3.17
2022-09-10T02:45:05.066Z,3.10
2022-09-10T02:47:33.271Z,3.00
2022-09-10T02:50:03.230Z,2.88
2022-09-10T02:52:31.741Z,3.17
2022-09-10T02:55:00.158Z,3.13
2022-09-10T02:57:28.969Z,3.55
2022-09-10T02:59:57.362Z,3.22
2022-09-10T03:02:25.784Z,3.65
2022-09-10T03:04:56.516Z,3.47
2022-09-10T03:07:28.274Z,3.78
2022-09-10T03:09:56.457Z,3.30
2022-09-10T03:12:24.756Z,3.60
2022-09-10T03:14:53.447Z,3.25
2022-09-10T03:17:24.111Z,3.53
2022-09-10T03:19:52.520Z,3.40
2022-09-10T03:22:22.911Z,3.40
2022-09-10T03:24:52.571Z,3.70
2022-09-10T03:27:20.913Z,3.38
2022-09-10T03:29:49.245Z,3.70
2022-09-10T03:32:17.467Z,3.97
2022-09-10T03:34:45.634Z,4.05
2022-09-10T03:37:14.208Z,3.47
2022-09-10T03:39:43.513Z,3.55
2022-09-10T03:42:14.224Z,3.72
2022-09-10T03:44:42.554Z,3.72
2022-09-10T03:47:11.790Z,3.47
2022-09-10T03:49:40.695Z,3.80
2022-09-10T03:52:12.614Z,4.18
2022-09-10T03:54:42.708Z,4.30
2022-09-10T03:57:15.155Z,4.10
2022-09-10T03:59:43.484Z,3.92
2022-09-10T04:02:13.340Z,4.18
2022-09-10T04:04:42.903Z,4.38
2022-09-10T04:07:11.987Z,4.43
2022-09-10T04:09:40.572Z,4.07
2022-09-10T04:12:11.573Z,4.13
2022-09-10T04:14:43.611Z,4.80
2022-09-10T04:17:16.250Z,4.45
2022-09-10T04:19:45.438Z,4.63
2022-09-10T04:22:13.725Z,4.80
2022-09-10T04:24:44.669Z,4.15
2022-09-10T04:27:12.960Z,4.57
2022-09-10T04:29:43.134Z,4.30
2022-09-10T04:32:11.515Z,4.80
2022-09-10T04:34:39.675Z,4.63
2022-09-10T04:37:08.211Z,4.80
2022-09-10T04:39:36.612Z,4.63
2022-09-10T04:42:06.901Z,4.63
2022-09-10T04:44:35.320Z,6.47
2022-09-10T04:47:06.296Z,5.60
2022-09-10T04:49:35.147Z,4.57
2022-09-10T04:52:03.914Z,4.30
2022-09-10T04:54:33.638Z,4.43
2022-09-10T04:57:04.012Z,4.30
2022-09-10T04:59:32.424Z,4.30
2022-09-10T05:02:00.726Z,4.45
2022-09-10T05:04:30.368Z,4.40
2022-09-10T05:09:31.726Z,3.97
2022-09-10T05:12:02.820Z,4.43
2022-09-10T05:14:31.519Z,3.90
2022-09-10T05:16:59.974Z,4.30
2022-09-10T05:19:33.380Z,4.25
2022-09-10T05:22:06.081Z,3.95
2022-09-10T05:24:35.354Z,3.80
2022-09-10T05:27:05.740Z,4.00
2022-09-10T05:29:36.130Z,4.00
2022-09-10T05:32:04.652Z,4.20
2022-09-10T05:34:34.372Z,5.05
2022-09-10T05:37:05.883Z,5.50
2022-09-10T05:39:34.945Z,4.60
2022-09-10T05:42:03.937Z,4.68
2022-09-10T05:44:32.492Z,3.78
2022-09-10T05:47:01.380Z,4.72
2022-09-10T05:49:30.505Z,5.05
2022-09-10T05:52:00.206Z,4.45
2022-09-10T05:54:28.414Z,4.55
2022-09-10T05:56:58.742Z,4.65
2022-09-10T05:59:27.002Z,4.18
2022-09-10T06:01:55.785Z,4.30
2022-09-10T06:04:25.548Z,4.30
2022-09-10T06:06:56.337Z,3.93
2022-09-10T06:09:28.688Z,4.03
2022-09-10T06:12:06.690Z,4.18
2022-09-10T06:14:36.170Z,4.03
2022-09-10T06:17:04.490Z,4.53
2022-09-10T06:19:33.947Z,3.85
2022-09-10T06:22:02.166Z,3.72
2022-09-10T06:24:35.443Z,3.97
2022-09-10T06:27:06.958Z,4.10
2022-09-10T06:29:36.865Z,3.55
2022-09-10T06:32:06.321Z,3.53
2022-09-10T06:34:37.174Z,3.60
2022-09-10T06:37:06.974Z,3.70
2022-09-10T06:39:39.593Z,4.15
2022-09-10T06:45:07.141Z,3.95
2022-09-10T06:50:53.481Z,4.18
2022-09-10T06:53:25.509Z,4.03
2022-09-10T06:55:56.622Z,4.25
2022-09-10T11:03:48.891Z,1.90
2022-09-10T11:06:21.453Z,2.60
2022-09-10T11:08:55.324Z,2.40
2022-09-10T11:11:31.348Z,4.97
2022-09-10T11:14:06.446Z,3.17
2022-09-10T11:16:42.138Z,2.80
2022-09-10T11:19:17.293Z,2.80
2022-09-10T11:21:53.023Z,3.47
2022-09-10T11:24:26.999Z,3.58
2022-09-10T11:27:01.812Z,3.20
2022-09-10T11:29:41.047Z,3.03
2022-09-10T11:32:21.571Z,3.05
2022-09-10T11:34:59.055Z,3.67
2022-09-10T11:37:35.468Z,3.92
2022-09-10T11:40:14.271Z,3.67
2022-09-10T11:42:46.028Z,4.78
2022-09-10T11:45:22.133Z,4.63
2022-09-10T11:47:57.288Z,5.30
2022-09-10T11:50:34.730Z,5.50
2022-09-10T11:53:07.436Z,5.97
2022-09-10T11:55:55.250Z,5.57
2022-09-10T11:58:32.091Z,5.80
2022-09-10T12:01:13.419Z,6.85
2022-09-10T12:04:15.038Z,6.40
2022-09-10T12:06:55.018Z,5.88
2022-09-10T12:09:30.021Z,7.13
2022-09-10T12:12:07.181Z,5.75
2022-09-10T12:14:40.986Z,5.65
2022-09-10T12:17:15.920Z,5.90
2022-09-10T12:19:50.474Z,7.00
2022-09-10T12:22:22.913Z,7.50
2022-09-10T12:24:56.450Z,7.60
2022-09-10T12:27:46.225Z,10.20
2022-09-10T12:30:59.236Z,7.97
2022-09-10T12:33:59.445Z,8.07
2022-09-10T12:37:17.168Z,8.57
2022-09-10T12:39:47.099Z,8.02
2022-09-10T12:42:33.703Z,7.72
2022-09-10T12:45:02.086Z,7.93
2022-09-10T12:47:42.297Z,8.38
2022-09-10T12:50:37.253Z,9.55
2022-09-10T12:53:51.703Z,10.75
2022-09-10T12:56:40.759Z,12.15
2022-09-10T12:59:28.640Z,11.52
2022-09-10T13:01:57.921Z,11.55
2022-09-10T13:04:30.795Z,11.07
2022-09-10T13:07:01.918Z,12.10
2022-09-10T13:09:33.545Z,11.63
2022-09-10T13:12:08.353Z,12.65
2022-09-10T13:14:39.776Z,14.02
2022-09-10T13:17:28.156Z,17.40
2022-09-10T13:19:57.935Z,16.58
2022-09-10T13:22:53.458Z,16.95
2022-09-10T13:25:40.058Z,18.98
2022-09-10T13:28:44.117Z,17.75
2022-09-10T13:31:19.599Z,17.38
2022-09-10T13:34:17.681Z,15.75
2022-09-10T13:37:04.330Z,16.42
2022-09-10T13:40:11.627Z,16.50
2022-09-10T13:42:54.855Z,16.38
2022-09-10T13:45:27.193Z,16.77
2022-09-10T13:48:02.285Z,15.87
2022-09-10T13:50:37.959Z,18.13
2022-09-10T13:53:10.798Z,16.38
2022-09-10T13:55:39.733Z,15.05
2022-09-10T13:58:14.048Z,14.70
2022-09-10T14:00:51.344Z,15.27
2022-09-10T14:03:25.447Z,15.15
2022-09-10T14:05:57.665Z,16.13
2022-09-10T14:08:31.515Z,15.70
2022-09-10T14:11:03.799Z,17.37
2022-09-10T14:13:37.023Z,16.05
2022-09-10T14:16:09.344Z,16.38
2022-09-10T14:18:45.137Z,15.55
2022-09-10T14:21:15.120Z,17.50
2022-09-10T14:23:47.871Z,15.82
2022-09-10T14:26:23.615Z,16.85
2022-09-10T14:28:58.926Z,16.88
2022-09-10T14:31:36.118Z,15.02
2022-09-10T14:34:31.567Z,15.32
2022-09-10T14:37:03.019Z,14.07
2022-09-10T14:39:31.502Z,13.20
2022-09-10T14:42:11.041Z,14.00
2022-09-10T14:44:42.814Z,13.50
2022-09-10T14:47:16.276Z,14.02
2022-09-10T14:49:47.247Z,13.57
2022-09-10T14:52:15.811Z,12.82
2022-09-10T14:54:44.023Z,13.40
2022-09-10T14:57:15.362Z,13.75
2022-09-10T14:59:46.319Z,13.60
2022-09-10T15:02:17.968Z,13.30
2022-09-10T15:04:47.600Z,14.70
2022-09-10T15:07:17.938Z,14.63
2022-09-10T15:09:46.885Z,15.90
2022-09-10T15:12:21.323Z,14.90
2022-09-10T15:14:49.779Z,15.52
2022-09-10T15:17:20.906Z,15.88
2022-09-10T15:19:50.624Z,17.70
2022-09-10T15:22:24.842Z,15.88
2022-09-10T15:25:09.224Z,16.42
2022-09-10T15:27:38.140Z,18.75
2022-09-10T15:30:09.251Z,16.40
2022-09-10T15:32:37.621Z,15.52
2022-09-10T15:35:08.763Z,15.60
2022-09-10T15:37:37.754Z,15.20
2022-09-10T15:40:10.111Z,15.07
2022-09-10T15:42:38.403Z,15.63
2022-09-10T15:45:07.295Z,14.93
2022-09-10T15:47:36.284Z,14.38
2022-09-10T15:50:06.858Z,14.77
2022-09-10T15:52:35.118Z,13.95
2022-09-10T15:55:03.357Z,15.47
2022-09-10T15:57:33.787Z,15.20
2022-09-10T16:00:05.327Z,15.15
2022-09-10T16:02:33.976Z,16.00
2022-09-10T16:05:02.227Z,16.17
2022-09-10T16:07:34.281Z,17.75
2022-09-10T16:10:02.594Z,16.67
2022-09-10T16:12:33.496Z,17.20
2022-09-10T16:15:04.491Z,16.40
2022-09-10T16:17:32.665Z,17.07
2022-09-10T16:20:01.019Z,17.07
2022-09-10T16:22:33.575Z,16.80
2022-09-10T16:25:01.768Z,17.17
2022-09-10T16:27:30.024Z,17.50
2022-09-10T16:30:00.357Z,17.92
2022-09-10T16:32:28.788Z,17.48
2022-09-10T16:34:56.979Z,18.25
2022-09-10T16:37:26.233Z,28.55
2022-09-10T16:39:56.830Z,23.38
2022-09-10T16:42:25.193Z,19.95
2022-09-10T16:44:53.364Z,21.23
2022-09-10T16:47:21.819Z,20.08
2022-09-10T16:49:50.122Z,18.48
2022-09-10T16:52:18.528Z,20.38
2022-09-10T16:54:47.367Z,20.80
2022-09-10T16:57:17.149Z,22.13
2022-09-10T16:59:45.485Z,23.98
2022-09-10T17:02:13.688Z,24.30
2022-09-10T17:04:41.973Z,23.73
2022-09-10T17:07:10.240Z,23.38
2022-09-10T17:09:38.565Z,24.45
2022-09-10T17:12:10.596Z,24.80
2022-09-10T17:14:40.561Z,26.58
2022-09-10T17:17:09.880Z,24.87
2022-09-10T17:19:38.291Z,25.70
2022-09-10T17:22:07.032Z,25.35
2022-09-10T17:24:35.249Z,26.00
2022-09-10T17:27:03.527Z,25.80
2022-09-10T17:29:32.986Z,25.80
2022-09-10T17:32:02.708Z,26.42
2022-09-10T17:34:30.876Z,26.37
2022-09-10T17:37:01.701Z,26.65
2022-09-10T17:39:30.713Z,27.15
2022-09-10T17:41:59.000Z,30.83
2022-09-10T17:44:27.502Z,28.92
2022-09-10T17:46:56.292Z,27.50
2022-09-10T17:49:25.844Z,27.73
2022-09-10T17:51:54.431Z,27.63
2022-09-10T17:54:23.537Z,27.85
2022-09-10T17:56:51.777Z,28.48
2022-09-10T17:59:21.257Z,35.15
2022-09-10T18:01:49.470Z,39.50
2022-09-10T18:04:18.922Z,30.05
2022-09-10T18:06:52.187Z,28.77
2022-09-10T18:09:22.119Z,30.80
2022-09-10T18:11:53.057Z,30.40
2022-09-10T18:14:23.908Z,29.92
2022-09-10T18:16:52.404Z,31.35
2022-09-10T18:19:20.652Z,31.73
2022-09-10T18:21:52.820Z,30.92
2022-09-10T18:24:24.171Z,31.33
2022-09-10T18:26:54.220Z,31.33
2022-09-10T18:29:23.804Z,32.00
2022-09-10T18:31:53.636Z,32.25
2022-09-10T18:34:26.970Z,31.55
2022-09-10T18:36:58.955Z,31.52
2022-09-10T18:39:28.851Z,32.75
2022-09-10T18:41:57.176Z,35.47
2022-09-10T18:44:27.561Z,35.60
2022-09-10T18:46:56.063Z,32.65
2022-09-10T18:49:25.528Z,32.05
2022-09-10T18:51:57.956Z,31.80
2022-09-10T18:54:28.741Z,34.08
2022-09-10T18:56:58.187Z,33.37
2022-09-10T18:59:26.932Z,34.80
2022-09-10T19:01:56.045Z,34.33
2022-09-10T19:04:26.796Z,34.03
2022-09-10T19:06:59.341Z,34.47
2022-09-10T19:09:29.049Z,32.30
2022-09-10T19:11:59.307Z,32.55
2022-09-10T19:14:29.460Z,32.25
2022-09-10T19:16:58.796Z,32.25
2022-09-10T19:19:28.669Z,31.08
2022-09-10T19:22:01.196Z,29.92
2022-09-10T19:27:21.095Z,27.35
2022-09-10T19:29:49.956Z,26.27
2022-09-10T19:32:19.923Z,25.15
2022-09-10T19:34:50.769Z,27.80
2022-09-10T19:37:20.963Z,29.07
2022-09-10T19:39:49.411Z,28.00
2022-09-10T19:42:17.930Z,30.40
2022-09-10T19:44:46.187Z,30.38
2022-09-10T19:47:14.421Z,30.33
2022-09-10T19:49:43.225Z,31.17
2022-09-10T19:52:11.858Z,32.05
2022-09-10T19:54:42.259Z,33.00
2022-09-10T19:57:12.724Z,31.30
2022-09-10T19:59:40.997Z,31.15
2022-09-10T20:02:10.621Z,29.57
2022-09-10T20:04:38.849Z,29.60
2022-09-10T20:07:07.335Z,30.80
2022-09-10T20:09:39.674Z,30.43
2022-09-10T20:12:10.838Z,30.63
2022-09-10T20:14:39.228Z,31.88
2022-09-10T20:17:07.524Z,30.70
2022-09-10T20:19:38.178Z,32.57
2022-09-10T20:22:06.445Z,33.33
2022-09-10T20:24:34.791Z,33.15
2022-09-10T20:27:03.097Z,32.03
2022-09-10T20:29:32.918Z,31.13
2022-09-10T20:32:01.269Z,30.63
2022-09-10T20:34:29.582Z,30.77
2022-09-10T20:36:57.764Z,31.27
2022-09-10T20:39:26.077Z,31.93
2022-09-10T20:41:54.701Z,35.17
2022-09-10T20:44:23.160Z,34.15
2022-09-10T20:46:52.866Z,34.30
2022-09-10T20:49:23.459Z,33.83
2022-09-10T20:51:54.119Z,35.15
2022-09-10T20:54:22.343Z,36.00
2022-09-10T20:56:50.595Z,38.03
2022-09-10T20:59:21.512Z,38.70
2022-09-10T21:01:53.023Z,40.53
2022-09-10T21:04:22.073Z,38.47
2022-09-10T21:06:50.341Z,37.95
2022-09-10T21:09:21.787Z,37.92
2022-09-10T21:11:50.849Z,36.25
2022-09-10T21:14:21.390Z,36.67
2022-09-10T21:16:49.575Z,37.85
2022-09-10T21:19:19.592Z,37.92
2022-09-10T21:21:49.947Z,37.78
2022-09-10T21:24:22.483Z,36.72
2022-09-10T21:26:51.179Z,38.80
2022-09-10T21:29:21.344Z,40.95
2022-09-10T21:31:50.814Z,45.13
2022-09-10T21:34:20.751Z,42.50
2022-09-10T21:36:48.955Z,44.73
2022-09-10T21:39:18.894Z,44.50
2022-09-10T21:41:48.646Z,41.72
2022-09-10T21:44:18.562Z,37.15
2022-09-10T21:46:48.613Z,36.55
2022-09-10T21:49:17.223Z,36.58
2022-09-10T21:51:46.872Z,38.37
2022-09-10T21:54:20.809Z,40.05
2022-09-10T21:56:49.480Z,41.30
2022-09-10T21:59:18.046Z,62.80
2022-09-10T22:01:47.530Z,45.53
2022-09-10T22:04:22.442Z,44.17
2022-09-10T22:06:54.492Z,71.47
2022-09-10T22:09:26.373Z,44.80
2022-09-10T22:11:59.235Z,44.20
2022-09-10T22:14:27.505Z,45.10
2022-09-10T22:16:55.963Z,44.25
2022-09-10T22:19:25.941Z,44.08
2022-09-10T22:21:56.914Z,45.42
2022-09-10T22:24:26.146Z,48.88
2022-09-10T22:26:57.056Z,51.60
2022-09-10T22:29:25.334Z,51.03
2022-09-10T22:31:55.781Z,50.72
2022-09-10T22:34:24.170Z,52.70
2022-09-10T22:36:52.409Z,53.28
2022-09-10T22:39:23.225Z,38.85
2022-09-10T22:41:52.426Z,36.20
2022-09-10T22:44:34.674Z,34.78
2022-09-10T22:47:18.628Z,33.85
2022-09-10T22:50:01.100Z,36.10
2022-09-10T22:55:17.825Z,36.38
2022-09-10T22:57:46.067Z,36.55
2022-09-10T23:00:15.498Z,37.60
2022-09-10T23:02:47.850Z,40.90
2022-09-10T23:05:16.303Z,39.35
2022-09-10T23:07:44.584Z,41.70
2022-09-10T23:10:21.313Z,44.70
2022-09-10T23:12:52.432Z,44.72
2022-09-10T23:15:20.791Z,41.40
2022-09-10T23:17:49.090Z,38.85
2022-09-10T23:20:18.049Z,40.10
2022-09-10T23:22:48.953Z,40.58
2022-09-10T23:25:19.565Z,41.23
2022-09-10T23:27:51.892Z,42.50
2022-09-10T23:30:20.353Z,40.72
2022-09-10T23:32:48.963Z,39.75
2022-09-10T23:35:17.323Z,39.28
2022-09-10T23:37:46.731Z,43.50
2022-09-10T23:40:15.542Z,41.37
2022-09-10T23:42:44.003Z,43.20
2022-09-10T23:45:14.026Z,43.58
2022-09-10T23:47:42.350Z,50.00
2022-09-10T23:50:10.878Z,42.22
2022-09-10T23:52:39.158Z,37.85
2022-09-10T23:55:09.961Z,39.72
2022-09-10T23:57:39.082Z,40.17
